createdAt,value
2022-10-04T00:00:37.966Z,2.25
2022-10-04T00:03:25.801Z,2.15
2022-10-04T00:05:58.502Z,2.72
2022-10-04T00:08:48.033Z,2.58
2022-10-04T00:11:25.003Z,2.38
2022-10-04T00:14:20.869Z,2.17
2022-10-04T00:16:49.402Z,2.67
2022-10-04T00:19:16.315Z,2.35
2022-10-04T00:21:58.004Z,3.55
2022-10-04T00:24:31.116Z,2.45
2022-10-04T00:27:21.677Z,2.67
2022-10-04T00:30:23.473Z,2.47
2022-10-04T00:33:04.321Z,2.93
2022-10-04T00:35:31.182Z,2.95
2022-10-04T00:38:08.723Z,3.35
2022-10-04T00:40:51.673Z,2.88
2022-10-04T00:43:50.603Z,3.05
2022-10-04T00:46:27.876Z,4.20
2022-10-04T00:48:59.901Z,3.25
2022-10-04T00:51:33.497Z,2.95
2022-10-04T00:54:24.541Z,3.65
2022-10-04T00:57:16.313Z,3.53
2022-10-04T00:59:56.057Z,3.30
2022-10-04T01:02:33.647Z,3.65
2022-10-04T01:05:06.776Z,2.85
2022-10-04T01:07:46.548Z,3.22
2022-10-04T01:10:25.545Z,2.92
2022-10-04T01:13:22.178Z,3.22
2022-10-04T01:15:58.086Z,2.90
2022-10-04T01:18:25.538Z,2.80
2022-10-04T01:20:54.476Z,3.50
2022-10-04T01:23:44.754Z,3.15
2022-10-04T01:26:41.472Z,3.40
2022-10-04T01:29:12.920Z,3.22
2022-10-04T01:31:50.749Z,4.20
2022-10-04T01:34:24.761Z,4.32
2022-10-04T01:36:59.470Z,3.45
2022-10-04T01:39:28.584Z,4.03
2022-10-04T01:42:14.461Z,3.45
2022-10-04T01:44:53.690Z,3.97
2022-10-04T01:47:43.722Z,3.67
2022-10-04T01:51:08.020Z,3.35
2022-10-04T01:53:44.878Z,3.42
2022-10-04T01:56:17.623Z,2.85
2022-10-04T01:58:55.020Z,3.22
2022-10-04T02:01:49.563Z,3.10
2022-10-04T02:04:25.857Z,3.13
2022-10-04T02:06:56.991Z,2.90
2022-10-04T02:09:29.415Z,2.42
2022-10-04T02:11:58.274Z,2.40
2022-10-04T02:14:30.902Z,2.60
2022-10-04T02:16:58.757Z,2.85
2022-10-04T02:19:36.450Z,2.78
2022-10-04T02:22:05.473Z,2.83
2022-10-04T02:24:40.397Z,2.45
2022-10-04T02:27:07.501Z,2.92
2022-10-04T02:29:34.609Z,2.90
2022-10-04T02:32:23.821Z,2.78
2022-10-04T02:34:51.907Z,2.58
2022-10-04T02:37:19.364Z,2.88
2022-10-04T02:40:05.081Z,2.95
2022-10-04T02:43:00.461Z,3.10
2022-10-04T02:45:46.992Z,3.30
2022-10-04T02:48:59.309Z,3.33
2022-10-04T02:51:41.131Z,2.80
2022-10-04T02:54:35.774Z,2.40
2022-10-04T02:57:03.193Z,2.33
2022-10-04T02:59:35.233Z,2.38
2022-10-04T03:02:03.822Z,2.30
2022-10-04T03:04:39.586Z,2.90
2022-10-04T03:07:09.199Z,2.70
2022-10-04T03:09:39.620Z,3.25
2022-10-04T03:12:07.864Z,3.00
2022-10-04T03:14:35.004Z,2.90
2022-10-04T03:17:04.610Z,2.78
2022-10-04T03:19:33.718Z,2.92
2022-10-04T03:22:09.743Z,3.03
2022-10-04T03:24:53.946Z,2.75
2022-10-04T03:27:26.459Z,2.80
2022-10-04T03:29:58.910Z,2.72
2022-10-04T03:32:30.444Z,2.50
2022-10-04T03:35:03.103Z,3.50
2022-10-04T03:37:35.541Z,3.03
2022-10-04T03:40:04.149Z,2.83
2022-10-04T03:42:35.016Z,2.83
2022-10-04T03:45:07.519Z,2.90
2022-10-04T03:47:39.038Z,2.88
2022-10-04T03:50:17.002Z,2.67
2022-10-04T03:52:57.379Z,2.53
2022-10-04T03:55:32.756Z,2.78
2022-10-04T03:58:00.419Z,2.83
2022-10-04T04:00:28.762Z,2.60
2022-10-04T04:03:04.032Z,2.67
2022-10-04T04:05:40.138Z,2.30
2022-10-04T04:08:26.771Z,2.42
2022-10-04T04:10:57.461Z,2.85
2022-10-04T04:13:31.708Z,3.05
2022-10-04T04:16:02.528Z,2.42
2022-10-04T04:18:34.305Z,3.08
2022-10-04T04:21:03.657Z,3.83
2022-10-04T04:23:36.586Z,3.60
2022-10-04T04:26:41.045Z,5.72
2022-10-04T04:29:22.307Z,6.43
2022-10-04T04:32:02.054Z,5.70
2022-10-04T04:34:34.263Z,5.32
2022-10-04T04:39:39.746Z,3.08
2022-10-04T04:42:25.258Z,3.00
2022-10-04T04:45:19.400Z,3.13
2022-10-04T04:47:50.479Z,2.95
2022-10-04T04:50:21.522Z,3.30
2022-10-04T04:53:16.325Z,2.95
2022-10-04T04:56:05.149Z,3.33
2022-10-04T04:59:02.387Z,3.42
2022-10-04T05:01:42.473Z,4.60
2022-10-04T05:04:09.572Z,3.78
2022-10-04T05:07:02.276Z,4.18
2022-10-04T05:09:36.047Z,3.90
2022-10-04T05:12:22.424Z,3.67
2022-10-04T05:14:53.101Z,2.72
2022-10-04T05:17:24.956Z,2.83
2022-10-04T05:19:56.522Z,2.90
2022-10-04T05:22:25.299Z,2.42
2022-10-04T05:25:08.892Z,1.92
2022-10-04T05:27:42.772Z,1.83
2022-10-04T05:30:55.000Z,2.00
2022-10-04T05:33:46.833Z,1.70
2022-10-04T05:36:38.502Z,2.70
2022-10-04T05:39:29.536Z,3.03
2022-10-04T05:42:16.219Z,2.70
2022-10-04T05:44:56.915Z,2.65
2022-10-04T05:47:28.430Z,2.50
2022-10-04T05:49:58.207Z,2.72
2022-10-04T05:52:40.078Z,2.50
2022-10-04T05:55:13.216Z,2.38
2022-10-04T05:57:58.928Z,2.60
2022-10-04T06:01:13.793Z,2.88
2022-10-04T06:04:34.195Z,2.40
2022-10-04T06:07:25.818Z,2.88
2022-10-04T06:10:17.156Z,3.10
2022-10-04T06:13:06.890Z,3.35
2022-10-04T06:15:46.519Z,3.35
2022-10-04T06:18:44.245Z,3.58
2022-10-04T06:21:58.898Z,3.47
2022-10-04T06:24:35.399Z,3.00
2022-10-04T06:27:23.580Z,2.83
2022-10-04T06:30:06.110Z,3.05
2022-10-04T06:33:18.656Z,3.22
2022-10-04T06:35:51.436Z,3.05
2022-10-04T06:38:55.957Z,2.22
2022-10-04T06:41:42.791Z,2.33
2022-10-04T06:44:37.828Z,2.45
2022-10-04T06:47:47.253Z,2.35
2022-10-04T06:50:28.586Z,2.35
2022-10-04T06:53:16.756Z,3.40
2022-10-04T06:56:10.754Z,2.75
2022-10-04T06:59:09.729Z,2.40
2022-10-04T07:02:06.526Z,2.75
2022-10-04T07:05:07.539Z,3.30
2022-10-04T07:07:39.323Z,2.50
2022-10-04T07:10:23.533Z,2.70
2022-10-04T07:13:04.101Z,3.75
2022-10-04T07:15:47.967Z,3.13
2022-10-04T07:18:27.048Z,2.85
2022-10-04T07:21:20.793Z,2.80
2022-10-04T07:24:03.965Z,3.45
2022-10-04T07:26:46.894Z,3.10
2022-10-04T07:29:26.555Z,2.90
2022-10-04T07:32:05.953Z,3.05
2022-10-04T07:34:57.485Z,3.00
2022-10-04T07:37:28.785Z,3.00
2022-10-04T07:40:09.944Z,2.57
2022-10-04T07:42:52.966Z,3.05
2022-10-04T07:45:29.740Z,2.70
2022-10-04T07:48:23.153Z,3.13
2022-10-04T07:51:04.965Z,2.45
2022-10-04T07:53:42.954Z,2.83
2022-10-04T07:56:30.503Z,2.58
2022-10-04T07:59:25.183Z,2.75
2022-10-04T08:02:26.646Z,3.60
2022-10-04T08:05:29.293Z,2.92
2022-10-04T08:08:34.872Z,2.83
2022-10-04T08:11:16.302Z,2.70
2022-10-04T08:14:17.646Z,2.50
2022-10-04T08:17:15.925Z,2.17
2022-10-04T08:20:04.986Z,2.75
2022-10-04T08:22:56.652Z,2.10
2022-10-04T08:25:42.578Z,2.15
2022-10-04T08:29:07.887Z,2.53
2022-10-04T08:32:07.181Z,2.17
2022-10-04T08:34:56.539Z,2.20
2022-10-04T08:37:53.649Z,2.08
2022-10-04T08:40:49.839Z,2.45
2022-10-04T08:43:56.807Z,2.83
2022-10-04T08:46:59.129Z,2.90
2022-10-04T08:50:09.997Z,3.03
2022-10-04T08:52:59.212Z,2.60
2022-10-04T08:56:34.515Z,2.60
2022-10-04T09:00:03.654Z,2.50
2022-10-04T09:02:58.607Z,2.30
2022-10-04T09:06:01.003Z,2.50
2022-10-04T09:08:58.705Z,2.67
2022-10-04T09:11:34.581Z,2.92
2022-10-04T09:14:32.340Z,2.13
2022-10-04T09:17:22.731Z,2.15
2022-10-04T09:20:37.780Z,1.63
2022-10-04T09:23:30.206Z,1.65
2022-10-04T09:26:19.093Z,1.48
2022-10-04T09:29:45.596Z,1.80
2022-10-04T09:32:57.726Z,1.25
2022-10-04T09:36:02.924Z,1.48
2022-10-04T09:39:29.529Z,1.52
2022-10-04T09:42:09.360Z,1.50
2022-10-04T09:45:31.234Z,1.40
2022-10-04T09:48:07.802Z,3.80
2022-10-04T09:51:09.388Z,1.38
2022-10-04T09:54:10.525Z,1.73
2022-10-04T09:57:17.607Z,1.73
2022-10-04T10:00:02.796Z,1.52
2022-10-04T10:03:03.848Z,1.63
2022-10-04T10:05:56.856Z,1.13
2022-10-04T10:08:55.518Z,1.88
2022-10-04T10:12:11.813Z,1.45
2022-10-04T10:15:09.357Z,1.27
2022-10-04T10:18:22.662Z,1.40
2022-10-04T10:21:20.783Z,1.48
2022-10-04T10:24:08.841Z,1.63
2022-10-04T10:27:15.290Z,1.50
2022-10-04T10:30:48.654Z,1.52
2022-10-04T10:39:58.751Z,1.55
2022-10-04T10:42:58.853Z,1.70
2022-10-04T10:45:50.096Z,1.65
2022-10-04T10:48:50.747Z,1.50
2022-10-04T10:51:55.785Z,1.35
2022-10-04T10:55:00.869Z,1.23
2022-10-04T10:58:50.645Z,1.30
2022-10-04T11:01:50.950Z,1.15
2022-10-04T11:04:43.986Z,2.05
2022-10-04T11:07:53.535Z,1.35
2022-10-04T11:11:06.069Z,1.88
2022-10-04T11:17:28.670Z,1.42
2022-10-04T11:20:52.783Z,1.10
2022-10-04T11:24:03.612Z,1.85
2022-10-04T11:27:00.119Z,1.58
2022-10-04T11:30:03.473Z,1.40
2022-10-04T11:33:23.174Z,1.02
2022-10-04T11:36:27.096Z,1.30
2022-10-04T11:39:52.345Z,1.52
2022-10-04T11:43:00.604Z,1.73
2022-10-04T11:46:10.675Z,1.92
2022-10-04T11:49:22.911Z,1.27
2022-10-04T11:52:25.765Z,1.58
2022-10-04T11:55:35.220Z,0.88
2022-10-04T11:58:39.678Z,0.93
2022-10-04T12:01:50.025Z,1.27
2022-10-04T12:05:07.559Z,0.82
2022-10-04T12:07:54.915Z,1.08
2022-10-04T12:10:29.419Z,1.25
2022-10-04T12:13:07.186Z,1.15
2022-10-04T12:15:59.352Z,0.90
2022-10-04T12:19:15.411Z,0.95
2022-10-04T12:22:17.541Z,1.20
2022-10-04T12:28:11.712Z,1.27
2022-10-04T12:31:49.651Z,1.17
2022-10-04T12:34:37.640Z,1.13
2022-10-04T12:37:13.659Z,0.85
2022-10-04T12:40:23.498Z,1.10
2022-10-04T12:43:47.148Z,1.00
2022-10-04T12:47:11.782Z,1.23
2022-10-04T12:50:26.220Z,1.08
2022-10-04T12:53:17.041Z,0.98
2022-10-04T12:55:55.697Z,0.80
2022-10-04T12:58:36.386Z,1.02
2022-10-04T13:01:32.956Z,0.82
2022-10-04T13:04:13.168Z,1.00
2022-10-04T13:07:07.640Z,0.73
2022-10-04T13:10:27.861Z,1.33
2022-10-04T13:13:21.144Z,1.00
2022-10-04T13:19:20.063Z,1.13
2022-10-04T13:22:37.680Z,0.90
2022-10-04T13:25:24.971Z,0.90
2022-10-04T13:28:23.013Z,0.90
2022-10-04T13:31:04.231Z,1.02
2022-10-04T13:34:01.622Z,0.70
2022-10-04T13:37:00.916Z,1.00
2022-10-04T13:39:59.990Z,0.68
2022-10-04T13:42:58.967Z,0.85
2022-10-04T13:46:03.086Z,0.95
2022-10-04T13:49:11.539Z,1.00
2022-10-04T13:52:16.720Z,0.98
2022-10-04T13:55:23.538Z,1.13
2022-10-04T13:58:18.257Z,1.30
2022-10-04T14:01:25.286Z,0.98
2022-10-04T14:04:19.956Z,1.20
2022-10-04T14:07:19.656Z,1.05
2022-10-04T14:10:29.324Z,1.05
2022-10-04T14:13:38.506Z,0.93
2022-10-04T14:17:05.625Z,0.70
2022-10-04T14:19:50.708Z,1.30
2022-10-04T14:22:53.781Z,2.40
2022-10-04T14:25:21.648Z,2.22
2022-10-04T14:28:14.364Z,1.10
2022-10-04T14:31:08.593Z,0.85
2022-10-04T14:33:54.837Z,0.90
2022-10-04T14:37:19.159Z,1.15
2022-10-04T14:40:16.801Z,0.77
2022-10-04T14:43:34.763Z,0.70
2022-10-04T14:46:08.085Z,0.52
2022-10-04T14:48:59.306Z,0.80
2022-10-04T14:52:14.383Z,0.90
2022-10-04T14:55:02.907Z,0.68
2022-10-04T14:58:03.867Z,0.68
2022-10-04T15:01:23.580Z,1.45
2022-10-04T15:04:19.638Z,0.70
2022-10-04T15:06:51.722Z,0.60
2022-10-04T15:09:37.105Z,0.60
2022-10-04T15:13:09.478Z,0.60
2022-10-04T15:15:50.105Z,0.63
2022-10-04T15:18:48.321Z,0.82
2022-10-04T15:21:43.923Z,0.77
2022-10-04T15:24:16.781Z,0.80
2022-10-04T15:27:31.039Z,0.90
2022-10-04T15:30:19.064Z,0.73
2022-10-04T15:33:23.823Z,0.88
2022-10-04T15:36:38.048Z,0.98
2022-10-04T15:39:31.193Z,1.00
2022-10-04T15:42:14.059Z,1.70
2022-10-04T15:45:04.346Z,1.10
2022-10-04T15:48:13.673Z,1.60
2022-10-04T15:51:18.143Z,1.73
2022-10-04T15:54:22.158Z,1.20
2022-10-04T15:57:46.218Z,0.73
2022-10-04T16:00:15.672Z,0.82
2022-10-04T16:03:19.554Z,0.90
2022-10-04T16:06:08.207Z,0.65
2022-10-04T16:09:31.919Z,1.38
2022-10-04T16:12:48.945Z,0.85
2022-10-04T16:15:32.495Z,0.85
2022-10-04T16:18:16.774Z,0.85
2022-10-04T16:21:16.009Z,0.90
2022-10-04T16:23:45.174Z,0.80
2022-10-04T16:26:19.434Z,0.77
2022-10-04T16:29:29.314Z,1.15
2022-10-04T16:32:13.220Z,1.00
2022-10-04T16:34:46.325Z,1.17
2022-10-04T16:37:35.240Z,1.17
2022-10-04T16:40:37.712Z,0.85
2022-10-04T16:43:35.690Z,1.20
2022-10-04T16:46:29.953Z,1.10
2022-10-04T16:49:20.401Z,1.08
2022-10-04T16:52:29.146Z,1.25
2022-10-04T16:55:37.682Z,1.30
2022-10-04T16:58:26.872Z,1.00
2022-10-04T17:01:28.912Z,0.98
2022-10-04T17:04:12.119Z,1.13
2022-10-04T17:07:16.164Z,1.20
2022-10-04T17:10:16.197Z,1.00
2022-10-04T17:12:59.906Z,1.10
2022-10-04T17:15:59.349Z,1.55
2022-10-04T17:18:52.073Z,0.90
2022-10-04T17:21:49.382Z,1.25
2022-10-04T17:24:51.513Z,1.02
2022-10-04T17:27:47.103Z,1.33
2022-10-04T17:30:21.859Z,1.27
2022-10-04T17:33:12.593Z,0.90
2022-10-04T17:36:21.376Z,1.33
2022-10-04T17:39:23.948Z,1.50
2022-10-04T17:42:41.867Z,1.67
2022-10-04T17:45:31.656Z,1.83
2022-10-04T17:48:49.738Z,1.77
2022-10-04T17:52:08.979Z,1.80
2022-10-04T17:54:57.634Z,1.42
2022-10-04T17:57:35.842Z,1.65
2022-10-04T18:00:13.180Z,1.80
2022-10-04T18:03:11.677Z,1.42
2022-10-04T18:05:41.545Z,1.27
2022-10-04T18:08:14.332Z,1.85
2022-10-04T18:11:04.444Z,1.83
2022-10-04T18:13:51.073Z,1.55
2022-10-04T18:16:30.226Z,2.00
2022-10-04T18:19:08.155Z,1.70
2022-10-04T18:21:51.287Z,1.77
2022-10-04T18:24:21.222Z,1.50
2022-10-04T18:27:05.775Z,1.83
2022-10-04T18:30:04.281Z,2.00
2022-10-04T18:32:35.072Z,2.17
2022-10-04T18:35:28.301Z,2.20
2022-10-04T18:38:24.529Z,2.40
2022-10-04T18:41:21.410Z,1.63
2022-10-04T18:44:04.195Z,2.78
2022-10-04T18:46:42.425Z,2.05
2022-10-04T18:49:18.060Z,1.73
2022-10-04T18:52:23.318Z,1.65
2022-10-04T18:55:15.556Z,1.90
2022-10-04T19:01:01.723Z,2.65
2022-10-04T19:04:00.315Z,1.98
2022-10-04T19:06:31.619Z,2.13
2022-10-04T19:09:25.250Z,2.08
2022-10-04T19:12:13.669Z,1.90
2022-10-04T19:15:10.861Z,2.20
2022-10-04T19:18:28.078Z,1.60
2022-10-04T19:21:45.686Z,1.90
2022-10-04T19:25:08.204Z,2.45
2022-10-04T19:27:50.669Z,1.27
2022-10-04T19:30:26.428Z,1.75
2022-10-04T19:33:20.476Z,2.17
2022-10-04T19:36:22.304Z,1.67
2022-10-04T19:39:02.713Z,1.77
2022-10-04T19:41:57.485Z,2.17
2022-10-04T19:44:57.940Z,2.03
2022-10-04T19:47:40.548Z,1.95
2022-10-04T19:50:18.529Z,1.98
2022-10-04T19:53:14.628Z,1.92
2022-10-04T19:55:55.920Z,1.92
2022-10-04T19:58:48.398Z,2.03
2022-10-04T20:01:23.026Z,2.10
2022-10-04T20:04:15.976Z,2.08
2022-10-04T20:06:50.102Z,1.70
2022-10-04T20:09:32.041Z,1.92
2022-10-04T20:12:00.789Z,2.03
2022-10-04T20:14:27.696Z,2.00
2022-10-04T20:17:02.161Z,2.30
2022-10-04T20:19:29.030Z,2.17
2022-10-04T20:22:08.271Z,2.13
2022-10-04T20:24:38.285Z,2.63
2022-10-04T20:27:28.487Z,2.58
2022-10-04T20:29:57.128Z,2.13
2022-10-04T20:32:27.079Z,2.50
2022-10-04T20:34:56.835Z,2.15
2022-10-04T20:37:43.959Z,2.28
2022-10-04T20:40:40.369Z,2.17
2022-10-04T20:43:16.428Z,2.25
2022-10-04T20:45:54.474Z,1.48
2022-10-04T20:48:27.370Z,2.15
2022-10-04T20:50:55.697Z,1.90
2022-10-04T20:53:29.588Z,1.95
2022-10-04T20:56:30.402Z,1.98
2022-10-04T20:59:03.465Z,2.38
2022-10-04T21:01:37.221Z,2.17
2022-10-04T21:04:30.778Z,1.90
2022-10-04T21:07:07.124Z,1.55
2022-10-04T21:09:37.158Z,1.92
2022-10-04T21:12:06.858Z,1.65
2022-10-04T21:14:38.044Z,2.00
2022-10-04T21:17:29.846Z,1.85
2022-10-04T21:19:57.107Z,2.15
2022-10-04T21:22:28.807Z,2.05
2022-10-04T21:25:05.439Z,2.28
2022-10-04T21:27:36.035Z,2.20
2022-10-04T21:30:17.842Z,1.75
2022-10-04T21:32:44.835Z,1.75
2022-10-04T21:35:13.111Z,2.03
2022-10-04T21:37:40.707Z,1.60
2022-10-04T21:40:19.592Z,1.80
2022-10-04T21:42:46.723Z,2.17
2022-10-04T21:45:13.810Z,1.90
2022-10-04T21:47:40.880Z,1.77
2022-10-04T21:50:08.333Z,1.92
2022-10-04T21:52:35.323Z,2.25
2022-10-04T21:55:02.337Z,2.50
2022-10-04T21:57:34.697Z,2.25
2022-10-04T22:00:03.224Z,2.60
2022-10-04T22:02:39.313Z,1.73
2022-10-04T22:05:06.545Z,2.42
2022-10-04T22:07:33.664Z,2.25
2022-10-04T22:10:00.647Z,1.92
2022-10-04T22:12:27.622Z,2.03
2022-10-04T22:14:54.561Z,1.90
2022-10-04T22:17:21.522Z,2.17
2022-10-04T22:19:49.861Z,2.05
2022-10-04T22:22:17.346Z,2.35
2022-10-04T22:24:44.733Z,2.40
2022-10-04T22:27:15.182Z,1.85
2022-10-04T22:29:42.824Z,2.30
2022-10-04T22:32:27.948Z,2.03
2022-10-04T22:35:14.419Z,2.30
2022-10-04T22:37:42.042Z,1.70
2022-10-04T22:40:21.731Z,2.15
2022-10-04T22:42:57.072Z,2.00
2022-10-04T22:45:30.486Z,1.67
2022-10-04T22:48:01.292Z,1.80
2022-10-04T22:50:34.367Z,1.63
2022-10-04T22:53:16.957Z,2.28
2022-10-04T22:55:43.983Z,1.60
2022-10-04T22:58:15.172Z,2.10
2022-10-04T23:00:43.488Z,2.23
2022-10-04T23:03:31.471Z,2.25
2022-10-04T23:06:03.039Z,2.20
2022-10-04T23:08:30.682Z,2.45
2022-10-04T23:11:00.481Z,1.63
2022-10-04T23:13:27.894Z,1.80
2022-10-04T23:16:00.529Z,1.75
2022-10-04T23:18:29.259Z,2.30
2022-10-04T23:21:00.319Z,1.63
2022-10-04T23:23:30.668Z,1.63
2022-10-04T23:25:57.701Z,1.40
2022-10-04T23:28:25.049Z,1.75
2022-10-04T23:31:14.538Z,1.90
2022-10-04T23:33:42.041Z,1.60
2022-10-04T23:36:12.018Z,1.35
2022-10-04T23:38:39.155Z,1.88
2022-10-04T23:41:11.507Z,1.95
2022-10-04T23:43:39.149Z,2.15
2022-10-04T23:46:15.458Z,2.03
2022-10-04T23:48:43.114Z,2.70
2022-10-04T23:51:15.296Z,2.20
2022-10-04T23:53:43.801Z,2.42
2022-10-04T23:56:24.801Z,2.35
2022-10-04T23:58:55.529Z,2.00
